createdAt,value
2023-01-26T00:00:54.576Z,469.80
2023-01-26T00:03:22.346Z,454.75
2023-01-26T00:05:49.502Z,462.73
2023-01-26T00:08:16.691Z,530.80
2023-01-26T00:10:50.292Z,476.80
2023-01-26T00:13:20.682Z,486.52
2023-01-26T00:15:47.832Z,451.20
2023-01-26T00:18:15.112Z,468.35
2023-01-26T00:20:42.364Z,549.78
2023-01-26T00:23:09.548Z,454.33
2023-01-26T00:25:39.974Z,549.53
2023-01-26T00:28:07.124Z,554.42
2023-01-26T00:30:34.346Z,470.95
2023-01-26T00:33:01.569Z,560.05
2023-01-26T00:35:28.778Z,463.17
2023-01-26T00:37:55.933Z,487.38
2023-01-26T00:40:23.115Z,554.15
2023-01-26T00:42:50.275Z,470.65
2023-01-26T00:45:17.577Z,561.85
2023-01-26T00:47:44.892Z,542.17
2023-01-26T00:50:12.484Z,492.63
2023-01-26T00:52:39.836Z,569.15
2023-01-26T00:55:07.242Z,578.78
2023-01-26T00:57:34.381Z,540.00
2023-01-26T01:00:01.539Z,556.83
2023-01-26T01:02:28.835Z,567.83
2023-01-26T01:04:56.180Z,589.40
2023-01-26T01:07:23.434Z,574.63
2023-01-26T01:09:50.574Z,579.90
2023-01-26T01:12:17.715Z,572.80
2023-01-26T01:14:44.948Z,604.83
2023-01-26T01:17:12.116Z,598.13
2023-01-26T01:19:39.854Z,602.75
2023-01-26T01:22:07.115Z,606.20
2023-01-26T01:24:35.345Z,511.00
2023-01-26T01:27:02.578Z,603.83
2023-01-26T01:29:29.909Z,541.42
2023-01-26T01:31:57.101Z,609.92
2023-01-26T01:34:24.338Z,621.45
2023-01-26T01:36:52.251Z,611.40
2023-01-26T01:39:19.435Z,530.08
2023-01-26T01:41:46.820Z,613.40
2023-01-26T01:44:22.084Z,615.40
2023-01-26T01:47:00.263Z,621.17
2023-01-26T01:49:29.323Z,625.47
2023-01-26T01:51:59.548Z,638.10
2023-01-26T01:54:30.251Z,515.65
2023-01-26T01:56:58.853Z,548.25
2023-01-26T01:59:26.454Z,621.03
2023-01-26T02:01:54.114Z,531.03
2023-01-26T02:04:23.409Z,611.60
2023-01-26T02:06:54.933Z,630.63
2023-01-26T02:09:45.202Z,608.70
2023-01-26T02:12:13.686Z,618.60
2023-01-26T02:14:41.776Z,543.30
2023-01-26T02:17:09.861Z,616.67
2023-01-26T02:19:48.993Z,617.63
2023-01-26T02:22:36.447Z,610.13
2023-01-26T02:25:07.655Z,614.95
2023-01-26T02:27:34.876Z,518.92
2023-01-26T02:30:03.348Z,524.53
2023-01-26T02:32:30.502Z,616.65
2023-01-26T02:34:57.980Z,606.42
2023-01-26T02:37:25.178Z,608.25
2023-01-26T02:40:01.958Z,614.25
2023-01-26T02:42:44.471Z,555.88
2023-01-26T02:45:13.326Z,527.10
2023-01-26T02:47:40.583Z,602.58
2023-01-26T02:50:10.994Z,608.55
2023-01-26T02:52:38.780Z,609.47
2023-01-26T02:55:25.513Z,614.20
2023-01-26T02:57:54.402Z,563.55
2023-01-26T03:00:23.456Z,635.15
2023-01-26T03:02:52.216Z,542.55
2023-01-26T03:05:19.467Z,622.72
2023-01-26T03:07:46.631Z,545.90
2023-01-26T03:10:14.027Z,554.40
2023-01-26T03:12:41.180Z,629.88
2023-01-26T03:15:27.202Z,630.22
2023-01-26T03:18:21.501Z,634.80
2023-01-26T03:21:07.208Z,553.10
2023-01-26T03:23:53.338Z,609.80
2023-01-26T03:26:39.246Z,621.58
2023-01-26T03:29:06.631Z,620.63
2023-01-26T03:31:33.872Z,615.13
2023-01-26T03:34:00.996Z,612.28
2023-01-26T03:36:28.133Z,619.88
2023-01-26T03:38:55.328Z,613.05
2023-01-26T03:41:41.007Z,519.10
2023-01-26T03:44:27.102Z,534.47
2023-01-26T03:47:12.840Z,623.17
2023-01-26T03:49:58.794Z,610.72
2023-01-26T03:52:44.893Z,616.45
2023-01-26T03:55:30.874Z,526.88
2023-01-26T03:57:57.992Z,622.30
2023-01-26T04:00:25.093Z,611.05
2023-01-26T04:03:10.930Z,540.42
2023-01-26T04:05:56.707Z,613.40
2023-01-26T04:08:44.658Z,620.50
2023-01-26T04:11:11.835Z,627.22
2023-01-26T04:13:57.447Z,627.42
2023-01-26T04:16:43.616Z,625.30
2023-01-26T04:19:29.623Z,537.30
2023-01-26T04:21:56.758Z,543.85
2023-01-26T04:24:24.657Z,536.15
2023-01-26T04:26:51.923Z,605.20
2023-01-26T04:29:19.113Z,517.17
2023-01-26T04:31:46.385Z,607.17
2023-01-26T04:34:14.920Z,612.25
2023-01-26T04:36:42.741Z,614.88
2023-01-26T04:39:10.463Z,510.08
2023-01-26T04:41:37.586Z,548.55
2023-01-26T04:44:04.779Z,613.83
2023-01-26T04:46:33.254Z,541.90
2023-01-26T04:49:00.390Z,626.00
2023-01-26T04:51:28.311Z,538.47
2023-01-26T04:53:55.418Z,556.45
2023-01-26T04:56:26.392Z,529.50
2023-01-26T04:58:54.107Z,593.47
2023-01-26T05:01:21.067Z,585.72
2023-01-26T05:03:48.311Z,514.47
2023-01-26T05:06:15.640Z,599.20
2023-01-26T05:08:42.698Z,603.00
2023-01-26T05:11:10.058Z,612.33
2023-01-26T05:13:37.278Z,521.97
2023-01-26T05:16:05.534Z,514.65
2023-01-26T05:18:32.423Z,531.50
2023-01-26T05:20:59.331Z,605.83
2023-01-26T05:23:27.020Z,608.50
2023-01-26T05:25:53.762Z,590.80
2023-01-26T05:28:20.474Z,605.75
2023-01-26T05:30:48.027Z,530.42
2023-01-26T05:33:15.915Z,618.83
2023-01-26T05:35:43.187Z,609.15
2023-01-26T05:38:10.150Z,563.38
2023-01-26T05:40:36.962Z,535.28
2023-01-26T05:43:03.825Z,535.35
2023-01-26T05:45:30.619Z,598.72
2023-01-26T05:47:57.487Z,587.42
2023-01-26T05:50:24.234Z,529.00
2023-01-26T05:52:50.957Z,597.15
2023-01-26T05:55:17.874Z,608.17
2023-01-26T05:57:44.677Z,521.08
2023-01-26T06:00:13.210Z,532.63
2023-01-26T06:02:40.183Z,589.35
2023-01-26T06:05:07.873Z,528.80
2023-01-26T06:07:34.667Z,582.67
2023-01-26T06:10:01.463Z,610.95
2023-01-26T06:12:35.356Z,621.80
2023-01-26T06:15:03.048Z,594.03
2023-01-26T06:17:29.845Z,585.38
2023-01-26T06:19:56.678Z,601.00
2023-01-26T06:22:23.854Z,506.08
2023-01-26T06:24:54.095Z,610.50
2023-01-26T06:27:20.801Z,542.45
2023-01-26T06:29:47.582Z,553.65
2023-01-26T06:32:15.386Z,593.95
2023-01-26T06:34:42.278Z,621.90
2023-01-26T06:37:09.811Z,590.38
2023-01-26T06:39:36.564Z,545.33
2023-01-26T06:42:03.539Z,610.17
2023-01-26T06:44:30.359Z,531.35
2023-01-26T06:46:57.095Z,527.10
2023-01-26T06:49:23.794Z,507.20
2023-01-26T06:52:21.692Z,528.28
2023-01-26T06:54:50.382Z,602.53
2023-01-26T06:57:17.120Z,610.35
2023-01-26T06:59:43.877Z,546.70
2023-01-26T07:02:19.625Z,605.85
2023-01-26T07:04:47.459Z,620.20
2023-01-26T07:07:14.557Z,563.35
2023-01-26T07:09:41.503Z,583.15
2023-01-26T07:12:08.330Z,642.85
2023-01-26T07:14:35.453Z,677.22
2023-01-26T07:17:02.722Z,625.53
2023-01-26T07:19:31.477Z,595.90
2023-01-26T07:21:58.222Z,589.40
2023-01-26T07:24:25.293Z,697.25
2023-01-26T07:26:52.874Z,690.50
2023-01-26T07:29:19.633Z,585.92
2023-01-26T07:31:46.456Z,608.67
2023-01-26T07:34:13.430Z,671.60
2023-01-26T07:36:40.442Z,685.42
2023-01-26T07:39:08.655Z,682.22
2023-01-26T07:41:35.693Z,604.00
2023-01-26T07:44:02.589Z,608.42
2023-01-26T07:46:29.437Z,604.78
2023-01-26T07:48:56.749Z,675.28
2023-01-26T07:51:23.828Z,647.65
2023-01-26T07:53:50.643Z,668.50
2023-01-26T07:56:21.948Z,584.83
2023-01-26T07:58:52.959Z,594.85
2023-01-26T08:01:20.693Z,599.08
2023-01-26T08:03:50.977Z,692.13
2023-01-26T08:06:18.594Z,699.83
2023-01-26T08:08:51.026Z,682.35
2023-01-26T08:11:19.525Z,616.20
2023-01-26T08:13:46.405Z,712.83
2023-01-26T08:16:13.346Z,694.58
2023-01-26T08:18:45.186Z,608.25
2023-01-26T08:21:14.415Z,622.35
2023-01-26T08:23:41.285Z,626.33
2023-01-26T08:26:11.095Z,702.28
2023-01-26T08:28:37.915Z,716.95
2023-01-26T08:31:11.553Z,628.83
2023-01-26T08:33:39.428Z,717.40
2023-01-26T08:36:08.788Z,641.95
2023-01-26T08:38:35.784Z,610.38
2023-01-26T08:41:03.349Z,728.30
2023-01-26T08:43:30.716Z,722.30
2023-01-26T08:46:00.248Z,641.78
2023-01-26T08:48:31.294Z,626.80
2023-01-26T08:51:01.158Z,619.00
2023-01-26T08:53:31.532Z,725.50
2023-01-26T08:56:01.399Z,719.10
2023-01-26T08:58:29.574Z,722.58
2023-01-26T09:00:56.565Z,698.03
2023-01-26T09:03:23.566Z,716.90
2023-01-26T09:05:50.522Z,711.65
2023-01-26T09:08:17.566Z,624.78
2023-01-26T09:10:45.265Z,735.65
2023-01-26T09:13:12.724Z,624.80
2023-01-26T09:15:39.732Z,645.42
2023-01-26T09:18:06.612Z,747.55
2023-01-26T09:20:33.616Z,635.72
2023-01-26T09:23:00.902Z,644.20
2023-01-26T09:25:27.735Z,643.47
2023-01-26T09:27:54.560Z,636.92
2023-01-26T09:30:24.233Z,726.78
2023-01-26T09:32:52.020Z,650.70
2023-01-26T09:35:19.547Z,737.65
2023-01-26T09:37:46.706Z,651.67
2023-01-26T09:40:23.373Z,643.28
2023-01-26T09:43:00.096Z,639.83
2023-01-26T09:45:30.684Z,631.75
2023-01-26T09:48:18.316Z,723.05
2023-01-26T09:51:23.333Z,719.88
2023-01-26T09:53:55.814Z,745.00
2023-01-26T09:56:28.478Z,616.30
2023-01-26T09:59:01.178Z,692.58
2023-01-26T10:01:48.893Z,655.10
2023-01-26T10:04:39.366Z,745.92
2023-01-26T10:07:11.643Z,758.22
2023-01-26T10:09:41.044Z,633.07
2023-01-26T10:12:14.673Z,743.28
2023-01-26T10:14:46.821Z,756.72
2023-01-26T10:17:24.775Z,642.88
2023-01-26T10:20:00.327Z,648.47
2023-01-26T10:22:48.748Z,646.45
2023-01-26T10:25:44.428Z,654.53
2023-01-26T10:28:18.567Z,741.10
2023-01-26T10:30:47.462Z,748.75
2023-01-26T10:33:35.777Z,780.42
2023-01-26T10:36:06.223Z,761.20
2023-01-26T10:38:32.954Z,767.22
2023-01-26T10:41:24.960Z,788.40
2023-01-26T10:43:54.012Z,779.60
2023-01-26T10:46:28.390Z,664.45
2023-01-26T10:48:58.083Z,791.58
2023-01-26T10:51:33.557Z,673.55
2023-01-26T10:54:18.546Z,768.47
2023-01-26T10:56:52.021Z,759.75
2023-01-26T10:59:48.104Z,781.83
2023-01-26T11:02:14.888Z,784.72
2023-01-26T11:04:42.231Z,769.35
2023-01-26T11:07:27.465Z,780.65
2023-01-26T11:09:55.339Z,660.25
2023-01-26T11:12:25.838Z,769.15
2023-01-26T11:15:04.668Z,780.70
2023-01-26T11:17:40.834Z,802.90
2023-01-26T11:20:32.628Z,708.75
2023-01-26T11:23:21.331Z,766.90
2023-01-26T11:26:14.279Z,793.50
2023-01-26T11:28:53.125Z,646.17
2023-01-26T11:31:40.483Z,779.33
2023-01-26T11:34:24.767Z,671.30
2023-01-26T11:37:29.020Z,795.00
2023-01-26T11:40:26.096Z,786.90
2023-01-26T11:42:59.011Z,807.70
2023-01-26T11:45:33.465Z,778.58
2023-01-26T11:48:24.773Z,795.42
2023-01-26T11:51:12.310Z,783.72
2023-01-26T11:53:45.411Z,790.35
2023-01-26T11:56:18.322Z,827.33
2023-01-26T11:59:00.428Z,725.00
2023-01-26T12:01:36.144Z,824.08
2023-01-26T12:04:03.022Z,813.88
2023-01-26T12:06:30.134Z,812.80
2023-01-26T12:09:03.330Z,691.78
2023-01-26T12:11:42.808Z,722.00
2023-01-26T12:14:40.516Z,818.45
2023-01-26T12:17:39.526Z,705.17
2023-01-26T12:20:29.719Z,689.33
2023-01-26T12:23:05.720Z,819.75
2023-01-26T12:25:39.721Z,720.25
2023-01-26T12:28:25.654Z,804.97
2023-01-26T12:31:18.624Z,723.30
2023-01-26T12:33:47.389Z,777.75
2023-01-26T12:36:41.382Z,719.25
2023-01-26T12:39:28.446Z,818.60
2023-01-26T12:41:55.320Z,817.63
2023-01-26T12:44:52.647Z,824.85
2023-01-26T12:47:22.886Z,789.60
2023-01-26T12:50:08.805Z,800.97
2023-01-26T12:53:04.051Z,791.38
2023-01-26T12:55:34.969Z,788.15
2023-01-26T12:58:05.633Z,770.85
2023-01-26T13:00:35.493Z,784.65
2023-01-26T13:03:56.448Z,766.35
2023-01-26T13:06:30.942Z,193.52
2023-01-26T13:09:26.133Z,203.45
2023-01-26T13:12:01.756Z,97.50
2023-01-26T13:14:59.582Z,104.10
2023-01-26T13:17:27.533Z,116.43
2023-01-26T13:19:59.911Z,180.35
2023-01-26T13:22:27.173Z,116.53
2023-01-26T13:25:40.203Z,151.88
2023-01-26T13:28:13.494Z,105.13
2023-01-26T13:33:28.513Z,94.78
2023-01-26T13:36:18.321Z,465.80
2023-01-26T13:39:12.272Z,525.90
2023-01-26T13:41:59.899Z,596.85
2023-01-26T13:44:58.981Z,605.97
2023-01-26T13:47:44.619Z,631.28
2023-01-26T13:50:37.909Z,627.40
2023-01-26T13:53:33.005Z,586.10
2023-01-26T13:56:22.664Z,522.03
2023-01-26T13:58:55.069Z,600.03
2023-01-26T14:01:22.049Z,496.67
2023-01-26T14:04:01.981Z,450.17
2023-01-26T14:06:31.969Z,533.25
2023-01-26T14:09:01.512Z,524.45
2023-01-26T14:11:31.069Z,527.25
2023-01-26T14:14:00.549Z,532.97
2023-01-26T14:16:36.746Z,376.13
2023-01-26T14:19:09.693Z,383.33
2023-01-26T14:22:02.751Z,328.70
2023-01-26T14:24:35.868Z,333.27
2023-01-26T14:27:45.250Z,309.77
2023-01-26T15:30:14.113Z,361.33
2023-01-26T15:33:40.824Z,245.13
2023-01-26T15:36:07.541Z,371.27
2023-01-26T15:38:35.695Z,265.85
2023-01-26T15:41:02.720Z,365.85
2023-01-26T15:43:29.703Z,268.27
2023-01-26T15:46:24.762Z,248.55
2023-01-26T15:48:52.417Z,333.55
2023-01-26T15:51:30.997Z,337.67
2023-01-26T15:53:57.963Z,262.95
2023-01-26T15:56:24.996Z,209.35
2023-01-26T15:59:00.220Z,195.77
2023-01-26T16:01:27.899Z,202.35
2023-01-26T16:03:54.976Z,317.45
2023-01-26T16:06:32.807Z,240.73
2023-01-26T16:12:35.936Z,356.13
2023-01-26T16:15:30.497Z,231.18
2023-01-26T16:18:02.858Z,247.25
2023-01-26T16:41:32.961Z,235.07
2023-01-26T16:44:02.314Z,329.75
2023-01-26T16:46:37.171Z,261.13
2023-01-26T16:49:04.565Z,217.57
2023-01-26T16:51:40.874Z,199.50
2023-01-26T16:54:08.455Z,322.90
2023-01-26T17:07:27.923Z,331.55
2023-01-26T17:10:02.372Z,366.63
2023-01-26T17:12:39.445Z,372.55
2023-01-26T17:15:24.088Z,240.50
2023-01-26T17:17:56.891Z,237.00
2023-01-26T17:24:37.902Z,246.20
2023-01-26T17:27:10.871Z,311.08
2023-01-26T17:33:05.449Z,225.97
2023-01-26T17:35:33.529Z,345.50
2023-01-26T17:38:00.816Z,235.07
2023-01-26T17:40:30.135Z,214.45
2023-01-26T17:42:57.554Z,306.45
2023-01-26T17:45:24.710Z,310.45
2023-01-26T17:47:58.760Z,312.90
2023-01-26T17:50:26.280Z,341.00
2023-01-26T17:52:55.883Z,333.92
2023-01-26T17:55:23.256Z,258.67
2023-01-26T17:57:50.761Z,344.20
2023-01-26T18:00:19.065Z,356.85
2023-01-26T18:02:52.224Z,348.00
2023-01-26T18:05:21.040Z,356.05
2023-01-26T18:07:51.357Z,371.13
2023-01-26T18:10:20.791Z,266.02
2023-01-26T18:12:48.024Z,349.08
2023-01-26T18:15:15.098Z,360.23
2023-01-26T18:17:43.408Z,346.50
2023-01-26T18:20:11.440Z,263.60
2023-01-26T18:26:31.280Z,369.02
2023-01-26T18:29:01.565Z,376.25
2023-01-26T18:31:32.088Z,368.33
2023-01-26T18:34:00.514Z,257.30
2023-01-26T18:36:28.055Z,358.20
2023-01-26T18:38:58.275Z,249.63
2023-01-26T18:42:24.954Z,250.43
2023-01-26T18:44:31.365Z,349.90
2023-01-26T18:47:20.656Z,355.77
2023-01-26T18:49:47.521Z,256.15
2023-01-26T18:52:19.283Z,271.05
2023-01-26T18:54:48.619Z,326.95
2023-01-26T18:57:18.634Z,350.15
2023-01-26T18:59:45.677Z,339.92
2023-01-26T19:02:18.002Z,377.45
2023-01-26T19:04:46.340Z,240.13
2023-01-26T19:07:16.035Z,249.50
2023-01-26T19:09:43.079Z,324.95
2023-01-26T19:12:10.290Z,326.65
2023-01-26T19:14:37.478Z,240.65
2023-01-26T19:17:04.538Z,255.82
2023-01-26T19:19:33.525Z,244.60
2023-01-26T19:22:56.677Z,287.45
2023-01-26T19:35:01.901Z,239.00
2023-01-26T19:37:28.955Z,258.38
2023-01-26T19:39:55.965Z,259.00
2023-01-26T19:42:23.024Z,263.73
2023-01-26T19:44:49.908Z,256.63
2023-01-26T19:47:16.952Z,318.23
2023-01-26T19:49:43.904Z,315.42
2023-01-26T19:52:10.923Z,309.77
2023-01-26T19:54:37.958Z,310.60
2023-01-26T19:57:07.141Z,245.82
2023-01-26T19:59:34.066Z,251.93
2023-01-26T20:02:04.090Z,247.15
2023-01-26T20:04:31.128Z,314.33
2023-01-26T20:07:00.327Z,236.63
2023-01-26T20:09:32.214Z,306.10
2023-01-26T20:11:59.276Z,302.27
2023-01-26T20:14:26.285Z,309.23
2023-01-26T20:16:53.611Z,226.60
2023-01-26T20:19:20.682Z,295.80
2023-01-26T20:21:47.848Z,308.30
2023-01-26T20:24:16.119Z,314.55
2023-01-26T20:26:44.759Z,326.48
2023-01-26T20:29:17.191Z,236.85
2023-01-26T20:31:45.240Z,227.85
2023-01-26T20:34:16.245Z,241.23
2023-01-26T20:36:45.215Z,254.30
2023-01-26T20:39:17.406Z,251.25
2023-01-26T20:41:44.388Z,231.15
2023-01-26T20:44:11.409Z,303.83
2023-01-26T20:46:43.282Z,251.60
2023-01-26T20:49:14.293Z,228.18
2023-01-26T20:51:43.119Z,245.85
2023-01-26T20:54:13.250Z,311.88
2023-01-26T20:56:41.734Z,256.77
2023-01-26T20:59:09.139Z,313.02
2023-01-26T21:01:36.607Z,220.35
2023-01-26T21:04:06.594Z,222.15
2023-01-26T21:06:34.146Z,219.15
2023-01-26T21:09:50.141Z,202.82
2023-01-26T21:12:18.960Z,286.67
2023-01-26T21:14:47.388Z,289.58
2023-01-26T21:17:22.588Z,205.73
2023-01-26T21:19:51.058Z,217.75
2023-01-26T21:22:24.455Z,216.52
2023-01-26T21:25:20.530Z,266.52
2023-01-26T21:27:48.485Z,261.20
2023-01-26T21:30:16.651Z,266.98
2023-01-26T21:32:57.935Z,265.08
2023-01-26T21:35:25.155Z,199.32
2023-01-26T21:37:54.042Z,212.23
2023-01-26T21:40:24.272Z,209.73
2023-01-26T21:42:53.510Z,178.23
2023-01-26T21:45:38.834Z,248.43
2023-01-26T21:48:28.157Z,188.07
2023-01-26T21:51:16.764Z,263.25
2023-01-26T21:54:12.386Z,254.10
2023-01-26T21:56:44.410Z,266.17
2023-01-26T21:59:14.831Z,174.27
2023-01-26T22:01:47.562Z,269.73
2023-01-26T22:04:17.677Z,269.35
2023-01-26T22:06:44.877Z,284.50
2023-01-26T22:09:26.754Z,196.70
2023-01-26T22:11:56.262Z,267.33
2023-01-26T22:14:28.221Z,187.23
2023-01-26T22:16:57.596Z,206.45
2023-01-26T22:19:24.773Z,265.83
2023-01-26T22:21:51.706Z,205.57
2023-01-26T22:24:18.943Z,208.80
2023-01-26T22:26:48.957Z,291.88
2023-01-26T22:29:16.036Z,203.85
2023-01-26T22:31:43.316Z,279.58
2023-01-26T22:34:13.508Z,255.10
2023-01-26T22:36:41.965Z,203.73
2023-01-26T22:39:09.672Z,206.20
2023-01-26T22:41:37.828Z,199.95
2023-01-26T22:44:04.976Z,206.98
2023-01-26T22:46:33.584Z,276.02
2023-01-26T22:49:00.749Z,293.95
2023-01-26T22:51:29.977Z,212.27
2023-01-26T22:53:58.366Z,196.65
2023-01-26T22:56:28.868Z,268.27
2023-01-26T22:59:01.002Z,207.38
2023-01-26T23:01:33.089Z,185.95
2023-01-26T23:04:03.251Z,196.68
2023-01-26T23:06:32.734Z,199.90
2023-01-26T23:09:01.634Z,208.70
2023-01-26T23:11:32.306Z,200.20
2023-01-26T23:14:02.101Z,296.67
2023-01-26T23:16:29.186Z,210.40
2023-01-26T23:18:58.261Z,294.73
2023-01-26T23:21:31.535Z,306.02
2023-01-26T23:23:59.673Z,208.05
2023-01-26T23:26:26.919Z,217.15
2023-01-26T23:28:53.839Z,209.10
2023-01-26T23:31:20.833Z,206.60
2023-01-26T23:33:48.127Z,199.13
2023-01-26T23:36:17.850Z,199.13
2023-01-26T23:38:45.839Z,186.05
2023-01-26T23:41:13.274Z,203.60
2023-01-26T23:43:40.270Z,210.80
2023-01-26T23:46:08.607Z,303.70
2023-01-26T23:48:35.927Z,211.60
2023-01-26T23:51:08.953Z,204.82
2023-01-26T23:53:36.083Z,277.60
2023-01-26T23:56:21.198Z,319.50
2023-01-26T23:58:50.963Z,322.83
